Terminal Aerodrome Forecast
Issued by NWS Portland, OR

Home | Current Version | Previous Version | Text Only | Print | Product List | Glossary On
Versions: 1 2 3 4 5 6 7 8 9 10 11 12 13 14 15 16 17 18 19 20 21 22 23 24
000
FTUS46 KPQR 282338
TAFTTD
TAF
KTTD 282338Z 2900/2924 VRB04KT P6SM SCT050 OVC120
     FM291000 12006KT P6SM -RA BKN040 OVC060
     FM291300 17012G22KT P6SM -RA SCT025 OVC050
     FM291600 19023G31KT P6SM -RA SCT025 OVC050
     FM292200 19015G22KT P6SM -RA SCT025 OVC040=

USA.gov is the U.S. government's official web portal to all federal, state and local government web resources and services.